Time;durP1;ratioP1;P1;durP2;ratioP2;P2;SDS_P1;SDS_P2;PMS_P1;PMS_P2;Temp;Humidity;BMP_temperature;BMP_pressure;BME280_temperature;BME280_humidity;BME280_pressure;Samples;Min_cycle;Max_cycle;Signal;HPM_P1;HPM_P2
2024/01/21 00:01:18;;;;;;;90.80;37.63;;;;;;;-4.19;76.55;102013.69;4083306;29;20086;-69
2024/01/21 00:03:21;;;;;;;88.13;37.03;;;;;;;-4.22;76.21;102004.13;4082506;29;20043;-69
2024/01/21 00:05:26;;;;;;;91.75;38.78;;;;;;;-4.21;77.26;101994.84;4083698;29;20087;-69
2024/01/21 00:07:28;;;;;;;79.63;35.90;;;;;;;-4.15;77.71;101995.44;4083715;29;20122;-69
2024/01/21 00:09:31;;;;;;;73.72;34.38;;;;;;;-4.12;77.33;101987.22;4083607;29;20044;-69
2024/01/21 00:11:34;;;;;;;84.50;36.38;;;;;;;-4.06;76.41;101995.44;4083282;29;20095;-70
2024/01/21 00:13:37;;;;;;;83.00;35.50;;;;;;;-4.04;77.31;101989.78;4083769;29;20075;-69
2024/01/21 00:15:40;;;;;;;85.32;34.78;;;;;;;-4.08;76.63;101989.31;4083373;29;20486;-69
2024/01/21 00:17:43;;;;;;;78.35;33.70;;;;;;;-4.09;76.56;101982.44;4083388;29;20035;-69
2024/01/21 00:19:45;;;;;;;85.90;35.15;;;;;;;-4.06;77.32;101980.19;4083509;29;20044;-69
2024/01/21 00:21:50;;;;;;;86.35;36.00;;;;;;;-3.74;76.36;101970.63;4081916;29;20051;-70
2024/01/21 00:23:53;;;;;;;85.22;35.42;;;;;;;-3.92;75.94;101967.19;4083410;29;20047;-69
2024/01/21 00:25:55;;;;;;;83.25;37.28;;;;;;;-3.96;76.15;101956.59;4083283;29;20040;-69
2024/01/21 00:27:58;;;;;;;83.13;36.53;;;;;;;-4.01;75.55;101957.81;4082164;29;20556;-70
2024/01/21 00:30:00;;;;;;;85.25;37.42;;;;;;;-3.99;75.72;101947.03;4082115;29;20063;-70
2024/01/21 00:32:04;;;;;;;76.13;33.47;;;;;;;-4.02;75.78;101946.75;4083059;29;20048;-70
2024/01/21 00:34:07;;;;;;;78.32;35.45;;;;;;;-4.10;76.54;101948.53;4083335;29;20043;-70
2024/01/21 00:36:11;;;;;;;81.78;33.97;;;;;;;-4.07;75.68;101940.34;4082086;29;20040;-69
2024/01/21 00:38:16;;;;;;;73.07;33.42;;;;;;;-3.98;75.91;101943.75;4083499;29;20090;-70
2024/01/21 00:40:18;;;;;;;82.32;35.28;;;;;;;-3.90;76.30;101947.03;4083287;29;20052;-70
2024/01/21 00:42:21;;;;;;;86.28;35.90;;;;;;;-3.75;75.57;101947.59;4082983;29;20458;-70
2024/01/21 00:44:24;;;;;;;84.65;34.70;;;;;;;-3.90;75.36;101947.94;4082012;29;20035;-70
2024/01/21 00:46:29;;;;;;;84.93;38.05;;;;;;;-3.96;74.77;101943.91;4083124;29;20043;-70
2024/01/21 00:48:32;;;;;;;86.80;36.58;;;;;;;-4.10;74.82;101947.66;4083234;29;20040;-70
2024/01/21 00:50:35;;;;;;;88.72;37.28;;;;;;;-4.13;76.29;101947.34;4084732;29;20052;-70
2024/01/21 00:52:37;;;;;;;89.68;35.30;;;;;;;-4.10;74.91;101942.59;4085787;29;20047;-69
2024/01/21 00:54:41;;;;;;;82.63;37.22;;;;;;;-4.16;76.28;101941.97;4084969;29;20123;-70
2024/01/21 00:56:44;;;;;;;79.43;35.92;;;;;;;-4.19;76.02;101936.59;4086058;29;20035;-69
2024/01/21 00:58:47;;;;;;;83.32;36.83;;;;;;;-4.17;75.50;101935.13;4086054;29;20051;-70
2024/01/21 01:00:50;;;;;;;91.75;36.88;;;;;;;-4.17;74.98;101933.47;4085908;29;20058;-70
2024/01/21 01:02:53;;;;;;;95.65;37.67;;;;;;;-4.18;75.14;101939.28;4085858;29;20075;-70
2024/01/21 01:04:55;;;;;;;83.97;35.70;;;;;;;-4.19;76.16;101936.59;4084692;29;20043;-70
2024/01/21 01:06:59;;;;;;;90.13;37.92;;;;;;;-4.21;75.30;101939.88;4085999;29;20501;-70
2024/01/21 01:09:02;;;;;;;88.28;39.10;;;;;;;-4.31;74.97;101937.19;4085933;29;20083;-70
2024/01/21 01:11:05;;;;;;;85.57;38.70;;;;;;;-4.33;75.05;101940.34;4084501;29;20151;-70
2024/01/21 01:13:08;;;;;;;90.32;38.00;;;;;;;-4.30;75.35;101943.19;4084756;29;20059;-70
2024/01/21 01:15:12;;;;;;;93.40;39.78;;;;;;;-4.31;76.51;101949.00;4084480;29;20047;-69
2024/01/21 01:17:15;;;;;;;93.85;40.28;;;;;;;-4.39;75.68;101946.59;4085814;29;20047;-68
2024/01/21 01:19:18;;;;;;;90.07;36.67;;;;;;;-4.44;76.37;101949.41;4085795;29;20613;-69
2024/01/21 01:21:21;;;;;;;94.32;39.38;;;;;;;-4.38;75.22;101952.56;4085396;29;20050;-69
2024/01/21 01:23:24;;;;;;;90.82;37.10;;;;;;;-4.39;76.59;101958.41;4085721;29;20067;-70
2024/01/21 01:25:27;;;;;;;98.80;39.35;;;;;;;-4.43;76.21;101954.66;4084397;29;20487;-70
2024/01/21 01:27:31;;;;;;;89.70;37.13;;;;;;;-4.52;75.27;101963.91;4085711;29;20043;-70
2024/01/21 01:29:34;;;;;;;87.88;34.60;;;;;;;-4.50;75.86;101969.13;4084430;29;20044;-70
2024/01/21 01:31:37;;;;;;;89.32;36.60;;;;;;;-4.54;75.52;101961.94;4085352;29;20122;-69
2024/01/21 01:33:40;;;;;;;89.90;41.08;;;;;;;-4.55;76.55;101971.22;4085552;29;20039;-69
2024/01/21 01:35:43;;;;;;;92.95;39.63;;;;;;;-4.65;76.83;101969.41;4085701;29;20123;-70
2024/01/21 01:37:46;;;;;;;105.20;40.97;;;;;;;-4.68;77.24;101980.91;4085558;29;20134;-70
2024/01/21 01:39:49;;;;;;;92.55;37.97;;;;;;;-4.68;76.25;101976.72;4085353;29;20055;-70
2024/01/21 01:41:52;;;;;;;84.57;36.05;;;;;;;-4.78;76.75;101985.03;4085024;29;20035;-70
2024/01/21 01:43:56;;;;;;;88.03;36.20;;;;;;;-4.78;76.52;101977.41;4085354;29;20422;-70
2024/01/21 01:46:00;;;;;;;77.72;33.90;;;;;;;-4.68;76.05;101983.44;4085124;29;20047;-70
2024/01/21 01:48:04;;;;;;;93.77;40.77;;;;;;;-4.72;76.39;101979.69;4085355;29;20062;-70
2024/01/21 01:50:09;;;;;;;92.75;37.10;;;;;;;-4.79;75.79;101990.88;4085406;29;20367;-70
2024/01/21 01:52:15;;;;;;;92.82;36.60;;;;;;;-4.66;75.66;101989.53;4085068;29;20122;-69
2024/01/21 01:54:21;;;;;;;81.38;33.40;;;;;;;-4.63;75.73;101983.16;4084149;29;20044;-70
2024/01/21 01:56:24;;;;;;;74.38;32.53;;;;;;;-4.66;76.35;101972.66;4085331;29;20150;-70
2024/01/21 01:58:28;;;;;;;76.60;32.72;;;;;;;-4.66;76.61;101967.59;4084073;29;20134;-70
2024/01/21 02:00:33;;;;;;;79.55;32.72;;;;;;;-4.66;76.57;101967.59;4085153;29;20047;-70
2024/01/21 02:02:36;;;;;;;;;;;;;;;-4.53;76.44;101954.50;4083601;29;20123;-70
2024/01/21 02:04:39;;;;;;;88.85;33.80;;;;;;;-4.36;75.21;101940.94;4085150;29;19976;-70
2024/01/21 02:06:42;;;;;;;83.05;34.13;;;;;;;-4.45;74.29;101940.91;4085043;29;20493;-69
2024/01/21 02:08:45;;;;;;;82.47;34.08;;;;;;;-4.54;75.39;101954.34;4084942;29;20036;-70
2024/01/21 02:10:48;;;;;;;84.55;35.72;;;;;;;-4.51;75.38;101954.63;4085034;29;20044;-71
2024/01/21 02:12:53;;;;;;;84.38;35.38;;;;;;;-4.52;73.71;101956.28;4067681;29;20044;-71
2024/01/21 02:14:57;;;;;;;75.38;32.25;;;;;;;-4.60;73.92;101960.63;4084914;29;20054;-70
2024/01/21 02:17:01;;;;;;;73.32;32.03;;;;;;;-4.51;74.16;101962.25;4084913;29;20046;-71
2024/01/21 02:19:15;;;;;;;93.72;35.95;;;;;;;-4.50;74.22;101953.91;4084939;29;20048;-70
2024/01/21 02:21:18;;;;;;;72.90;31.65;;;;;;;-4.48;75.49;101944.78;4084591;29;20059;-69
2024/01/21 02:23:22;;;;;;;75.20;33.22;;;;;;;-4.46;75.71;101950.94;4084927;29;20050;-70
2024/01/21 02:25:25;;;;;;;82.78;35.38;;;;;;;-4.48;75.21;101947.31;4084723;29;20040;-70
2024/01/21 02:27:28;;;;;;;83.95;34.03;;;;;;;-4.46;75.96;101943.31;4088387;29;20043;-70
2024/01/21 02:29:31;;;;;;;93.63;39.67;;;;;;;-4.44;75.24;101935.09;4089384;29;20147;-69
2024/01/21 02:31:34;;;;;;;69.63;31.63;;;;;;;-4.41;74.44;101922.72;4087548;29;20078;-70
2024/01/21 02:33:37;;;;;;;74.80;32.80;;;;;;;-4.39;74.66;101921.22;4084012;29;20075;-70
2024/01/21 02:35:39;;;;;;;76.38;34.88;;;;;;;-4.36;75.74;101922.28;4083438;29;20040;-70
2024/01/21 02:37:42;;;;;;;89.47;36.08;;;;;;;-4.32;74.83;101919.25;4084603;29;20035;-70
2024/01/21 02:39:46;;;;;;;72.55;32.95;;;;;;;-4.48;74.67;101912.72;4084500;29;20044;-70
2024/01/21 02:41:49;;;;;;;77.53;33.72;;;;;;;-4.34;74.66;101921.66;4083034;29;20046;-70
2024/01/21 02:43:52;;;;;;;77.28;32.10;;;;;;;-4.23;74.94;101927.78;4084459;29;20453;-70
2024/01/21 02:45:55;;;;;;;72.03;32.55;;;;;;;-4.34;74.25;101921.66;4084223;29;20414;-69
2024/01/21 02:47:57;;;;;;;75.72;34.88;;;;;;;-4.31;74.33;101914.34;4084641;29;20043;-69
2024/01/21 02:50:00;;;;;;;70.75;32.45;;;;;;;-4.23;75.83;101912.56;4084383;29;20143;-68
2024/01/21 02:52:03;;;;;;;70.25;32.22;;;;;;;-4.12;74.29;101909.38;4084105;29;20051;-68
2024/01/21 02:54:06;;;;;;;74.05;30.95;;;;;;;-4.19;75.26;101904.50;4084352;29;20047;-70
2024/01/21 02:56:20;;;;;;;69.20;30.92;;;;;;;-4.23;75.03;101905.81;4084336;29;20036;-70
2024/01/21 02:58:23;;;;;;;71.47;32.63;;;;;;;-4.39;75.21;101897.47;4084243;29;20131;-69
2024/01/21 03:00:26;;;;;;;69.93;30.17;;;;;;;-4.53;74.37;101902.84;4084315;29;20392;-69
2024/01/21 03:02:29;;;;;;;58.20;28.50;;;;;;;-4.65;75.37;101903.44;4083894;29;20047;-69
2024/01/21 03:04:32;;;;;;;60.53;26.85;;;;;;;-4.54;75.60;101901.03;4084186;29;20062;-69
2024/01/21 03:06:35;;;;;;;58.10;28.15;;;;;;;-4.50;74.74;101898.94;4084095;29;20078;-69
2024/01/21 03:08:38;;;;;;;61.33;28.42;;;;;;;-4.44;76.13;101891.03;4084370;29;20213;-69
2024/01/21 03:10:41;;;;;;;72.90;29.55;;;;;;;-4.45;75.69;101904.50;4082962;29;20032;-71
2024/01/21 03:12:46;;;;;;;71.95;31.65;;;;;;;-4.46;75.30;101900.16;4083629;29;20055;-70
2024/01/21 03:14:49;;;;;;;77.70;32.97;;;;;;;-4.53;74.62;101892.69;4083493;29;20494;-70
2024/01/21 03:16:51;;;;;;;66.82;30.23;;;;;;;-4.52;76.27;101891.97;4084028;29;20050;-70
2024/01/21 03:18:54;;;;;;;74.93;31.55;;;;;;;-4.48;76.24;101883.88;4084028;29;20147;-71
2024/01/21 03:20:57;;;;;;;67.22;30.30;;;;;;;-4.37;76.35;101885.81;4083861;29;20040;-71
2024/01/21 03:23:00;;;;;;;66.82;30.45;;;;;;;-4.30;76.41;101884.78;4083999;29;20446;-72
2024/01/21 03:25:04;;;;;;;62.60;29.73;;;;;;;-4.32;75.15;101889.72;4084126;29;20039;-72
2024/01/21 03:27:06;;;;;;;64.95;31.13;;;;;;;-4.35;75.91;101879.28;4082793;29;20118;-72
2024/01/21 03:29:11;;;;;;;61.97;28.00;;;;;;;-4.56;74.66;101886.59;4083965;29;20463;-72
2024/01/21 03:31:14;;;;;;;71.40;31.90;;;;;;;-4.65;76.19;101887.31;4082508;29;20043;-72
2024/01/21 03:33:15;;;;;;;75.30;31.38;;;;;;;-4.58;76.29;101884.63;4082813;29;20139;-71
2024/01/21 03:35:19;;;;;;;78.28;32.58;;;;;;;-4.40;75.52;101871.19;4082758;29;20048;-72
2024/01/21 03:37:21;;;;;;;72.95;32.45;;;;;;;-4.46;75.89;101875.66;4084163;29;20126;-72
2024/01/21 03:39:24;;;;;;;68.55;30.70;;;;;;;-4.65;75.71;101862.81;4082641;29;20071;-72
2024/01/21 03:41:27;;;;;;;63.10;29.30;;;;;;;-4.58;74.98;101874.50;4066732;29;20491;-72
2024/01/21 03:43:29;;;;;;;72.25;33.30;;;;;;;-4.48;76.00;101876.25;4082729;29;20048;-72
2024/01/21 03:45:34;;;;;;;68.95;31.02;;;;;;;-4.46;75.22;101865.50;4082607;29;20051;-72
2024/01/21 03:47:37;;;;;;;69.20;32.30;;;;;;;-4.51;74.12;101873.44;4082600;29;20047;-72
2024/01/21 03:49:40;;;;;;;66.88;29.00;;;;;;;-4.60;75.55;101868.34;4083981;29;20057;-72
2024/01/21 03:51:43;;;;;;;58.65;30.27;;;;;;;-4.56;75.62;101867.91;4082291;29;20047;-72
2024/01/21 03:53:46;;;;;;;61.55;31.17;;;;;;;-4.56;74.53;101863.75;4082586;29;20039;-72
2024/01/21 03:55:49;;;;;;;57.75;27.83;;;;;;;-4.73;74.92;101866.28;4082502;29;20039;-72
2024/01/21 03:57:51;;;;;;;67.13;31.70;;;;;;;-4.82;73.88;101865.34;4083710;29;20051;-72
2024/01/21 03:59:54;;;;;;;71.70;30.05;;;;;;;-4.88;74.10;101869.84;4083624;29;20052;-72
2024/01/21 04:01:59;;;;;;;68.70;29.88;;;;;;;-4.97;75.52;101865.63;4083446;29;20441;-70
2024/01/21 04:04:02;;;;;;;66.57;28.70;;;;;;;-5.17;74.29;101876.34;4083644;29;20043;-70
2024/01/21 04:06:04;;;;;;;70.45;33.08;;;;;;;-5.35;74.56;101867.78;4091624;29;20414;-70
2024/01/21 04:08:07;;;;;;;74.03;33.40;;;;;;;-5.43;75.60;101863.59;4099330;28;20508;-70
2024/01/21 04:10:10;;;;;;;63.47;29.23;;;;;;;-5.38;75.10;101864.06;4099417;29;20070;-70
2024/01/21 04:12:13;;;;;;;68.28;33.17;;;;;;;-5.26;75.46;101873.78;4098930;29;20098;-70
2024/01/21 04:14:16;;;;;;;71.70;32.13;;;;;;;-5.19;74.87;101872.75;4099437;29;20102;-70
2024/01/21 04:16:21;;;;;;;73.07;32.38;;;;;;;-5.10;74.53;101868.56;4098196;29;20043;-70
2024/01/21 04:18:26;;;;;;;73.32;33.38;;;;;;;-5.34;74.66;101879.72;4099398;29;20039;-71
2024/01/21 04:20:29;;;;;;;64.55;31.95;;;;;;;-5.38;74.87;101889.41;4099494;28;20102;-71
2024/01/21 04:22:32;;;;;;;57.25;27.88;;;;;;;-5.42;75.31;101883.09;4097848;29;20553;-72
2024/01/21 04:24:34;;;;;;;71.40;32.63;;;;;;;-5.33;75.50;101885.66;4098257;28;20094;-71
2024/01/21 04:26:37;;;;;;;73.57;31.02;;;;;;;-5.22;76.35;101890.19;4101289;29;20036;-71
2024/01/21 04:28:40;;;;;;;68.82;30.80;;;;;;;-5.24;75.49;101903.44;4101460;29;20058;-71
2024/01/21 04:30:43;;;;;;;71.68;31.33;;;;;;;-5.24;75.60;101895.84;4102354;28;20615;-71
2024/01/21 04:32:45;;;;;;;64.82;29.63;;;;;;;-5.26;76.01;101894.06;4100923;29;20043;-71
2024/01/21 04:34:50;;;;;;;74.65;34.22;;;;;;;-5.35;76.07;101895.66;4102403;29;20039;-72
2024/01/21 04:36:53;;;;;;;71.53;30.63;;;;;;;-5.40;74.95;101889.25;4102454;28;20198;-71
2024/01/21 04:38:56;;;;;;;65.40;32.03;;;;;;;-5.31;76.05;101895.22;4102441;28;20043;-71
2024/01/21 04:40:59;;;;;;;70.57;30.73;;;;;;;-5.20;76.08;101893.75;4102078;28;20122;-71
2024/01/21 04:43:02;;;;;;;67.70;31.67;;;;;;;-5.21;75.17;101891.06;4102298;29;20043;-71
2024/01/21 04:45:05;;;;;;;70.95;30.73;;;;;;;-5.10;75.92;101893.06;4102202;28;20139;-71
2024/01/21 04:47:10;;;;;;;68.70;31.88;;;;;;;-4.99;75.58;101897.56;4102000;29;20090;-71
2024/01/21 04:49:15;;;;;;;70.32;32.50;;;;;;;-4.94;75.67;101893.81;4101054;29;20039;-72
2024/01/21 04:51:20;;;;;;;69.80;32.03;;;;;;;-4.94;76.26;101893.81;4100929;29;20069;-71
2024/01/21 04:53:23;;;;;;;66.50;31.48;;;;;;;-4.88;75.35;101896.06;4102346;29;20262;-71
2024/01/21 04:55:29;;;;;;;66.00;30.85;;;;;;;-4.85;74.70;101893.84;4102120;28;20544;-70
2024/01/21 04:57:32;;;;;;;67.60;31.05;;;;;;;-4.88;75.32;101887.59;4101978;29;20461;-70
2024/01/21 04:59:36;;;;;;;62.30;28.55;;;;;;;-4.79;75.51;101888.47;4102001;28;20505;-70
2024/01/21 05:01:40;;;;;;;62.22;28.55;;;;;;;-4.76;75.90;101884.63;4101644;29;20039;-70
2024/01/21 05:03:43;;;;;;;70.03;31.90;;;;;;;-4.76;74.78;101879.56;4102212;29;20046;-72
2024/01/21 05:05:46;;;;;;;69.80;30.45;;;;;;;-4.81;75.00;101883.25;4101801;29;20387;-71
2024/01/21 05:07:53;;;;;;;76.75;31.98;;;;;;;-4.85;76.00;101890.41;4101926;29;20043;-70
2024/01/21 05:09:56;;;;;;;65.68;30.30;;;;;;;-4.81;74.56;101889.97;4101806;29;20079;-71
2024/01/21 05:11:59;;;;;;;76.82;32.47;;;;;;;-4.68;75.99;101887.03;4101504;29;20043;-70
2024/01/21 05:14:02;;;;;;;63.83;30.52;;;;;;;-4.45;74.34;101886.75;4101741;28;20043;-70
2024/01/21 05:16:05;;;;;;;63.35;30.55;;;;;;;-4.60;74.69;101886.09;4100546;29;20047;-69
2024/01/21 05:18:08;;;;;;;65.25;30.52;;;;;;;-4.64;75.22;101874.78;4101824;28;20549;-70
2024/01/21 05:20:11;;;;;;;73.60;32.03;;;;;;;-4.70;74.18;101873.28;4101807;29;20143;-70
2024/01/21 05:22:14;;;;;;;78.10;33.47;;;;;;;-4.67;74.56;101864.34;4101490;28;20047;-69
2024/01/21 05:24:18;;;;;;;71.78;32.70;;;;;;;-4.65;74.74;101878.06;4101568;29;20061;-69
2024/01/21 05:26:21;;;;;;;79.95;34.63;;;;;;;-4.67;75.87;101877.03;4101776;28;20069;-71
2024/01/21 05:28:24;;;;;;;71.85;33.78;;;;;;;-4.52;75.79;101869.13;4101408;29;20043;-71
2024/01/21 05:30:27;;;;;;;73.95;33.15;;;;;;;-4.62;74.30;101860.59;4101592;29;20094;-70
2024/01/21 05:32:31;;;;;;;74.40;33.45;;;;;;;-4.68;74.70;101869.25;4101096;28;20047;-70
2024/01/21 05:34:33;;;;;;;72.63;33.00;;;;;;;-4.62;75.33;101874.94;4086608;29;20044;-70
2024/01/21 05:36:37;;;;;;;64.90;31.02;;;;;;;-4.58;74.81;101864.34;4084341;29;20075;-70
2024/01/21 05:38:41;;;;;;;72.63;33.00;;;;;;;-4.54;75.01;101868.06;4085170;29;20450;-70
2024/01/21 05:40:46;;;;;;;73.33;31.47;;;;;;;-4.47;74.47;101860.28;4084877;29;20067;-70
2024/01/21 05:42:49;;;;;;;66.88;30.40;;;;;;;-4.39;72.99;101864.47;4084952;29;20287;-70
2024/01/21 05:44:52;;;;;;;69.93;33.40;;;;;;;-4.64;73.38;101862.09;4084941;29;20071;-70
2024/01/21 05:46:54;;;;;;;71.40;32.53;;;;;;;-4.70;73.71;101858.97;4084975;29;20049;-70
2024/01/21 05:49:00;;;;;;;70.28;33.97;;;;;;;-4.86;74.54;101864.16;4084578;29;20047;-70
2024/01/21 05:51:04;;;;;;;85.47;35.65;;;;;;;-5.01;73.23;101855.91;4084732;29;20044;-70
2024/01/21 05:53:08;;;;;;;71.18;31.27;;;;;;;-4.95;74.13;101861.63;4091252;29;20071;-70
2024/01/21 05:55:11;;;;;;;69.50;32.23;;;;;;;-4.96;74.28;101859.81;4084959;29;20036;-70
2024/01/21 05:57:15;;;;;;;73.93;31.50;;;;;;;-4.86;75.63;101868.31;4060701;29;20143;-70
2024/01/21 05:59:20;;;;;;;67.65;31.83;;;;;;;-4.91;74.14;101865.34;4078111;29;20103;-70
2024/01/21 06:02:00;;;;;;;73.50;35.03;;;;;;;-4.95;74.38;101859.09;4083340;29;20039;-70
2024/01/21 06:04:03;;;;;;;65.30;27.58;;;;;;;-4.94;75.16;101863.38;4085066;29;20040;-70
2024/01/21 06:06:06;;;;;;;67.88;31.58;;;;;;;-4.93;73.85;101857.59;4085329;29;20050;-70
2024/01/21 06:08:10;;;;;;;76.68;32.00;;;;;;;-5.05;74.64;101848.78;4085006;29;20570;-70
2024/01/21 06:10:13;;;;;;;64.78;30.58;;;;;;;-5.18;74.39;101858.41;4085071;29;20055;-70
2024/01/21 06:12:17;;;;;;;80.30;35.28;;;;;;;-5.30;74.38;101861.53;4084612;29;20063;-70
2024/01/21 06:14:20;;;;;;;45.60;23.35;;;;;;;-5.28;73.91;101865.13;4093229;29;20040;-70
2024/01/21 06:16:22;;;;;;;73.57;32.53;;;;;;;-5.21;74.76;101861.56;4092827;29;20048;-69
2024/01/21 06:18:26;;;;;;;70.45;31.63;;;;;;;-5.25;74.69;101862.00;4085488;29;20079;-70
2024/01/21 06:20:29;;;;;;;54.33;25.40;;;;;;;-5.20;74.10;101859.91;4084970;29;20079;-70
2024/01/21 06:22:32;;;;;;;73.57;33.95;;;;;;;-4.99;74.21;101854.44;4084697;29;20572;-70
2024/01/21 06:24:35;;;;;;;64.50;28.90;;;;;;;-5.05;74.12;101858.91;4084079;29;20130;-70
2024/01/21 06:26:38;;;;;;;68.13;31.40;;;;;;;-5.08;73.97;101858.63;4083781;29;20507;-70
2024/01/21 06:28:42;;;;;;;67.68;30.88;;;;;;;-5.01;74.55;101850.84;4084743;29;20533;-71
2024/01/21 06:30:46;;;;;;;;;;;;;;;-5.01;74.99;101847.44;4085349;29;20068;-70
2024/01/21 06:32:49;;;;;;;75.40;31.58;;;;;;;-5.01;74.64;101848.31;4084404;29;19930;-70
2024/01/21 06:35:04;;;;;;;;;;;;;;;-5.02;75.49;101846.53;4085287;29;20446;-70
2024/01/21 06:37:07;;;;;;;59.85;28.25;;;;;;;-4.91;74.85;101852.66;4084673;29;19923;-70
2024/01/21 06:39:10;;;;;;;66.10;28.48;;;;;;;-4.85;75.03;101860.88;4084495;29;20035;-71
2024/01/21 06:41:13;;;;;;;62.95;29.10;;;;;;;-4.82;74.67;101862.81;4084313;29;20048;-69
2024/01/21 06:43:16;;;;;;;60.38;28.52;;;;;;;-4.77;74.59;101871.78;4083262;29;20047;-70
2024/01/21 06:45:20;;;;;;;60.17;27.63;;;;;;;-4.66;74.04;101870.28;4083131;29;20083;-70
2024/01/21 06:47:24;;;;;;;61.50;28.15;;;;;;;-4.64;75.47;101867.16;4084525;29;20458;-70
2024/01/21 06:49:27;;;;;;;71.30;32.60;;;;;;;-4.62;74.00;101867.31;4084168;29;20561;-70
2024/01/21 06:51:32;;;;;;;62.00;26.23;;;;;;;-4.53;74.17;101844.47;4082795;29;20508;-71
2024/01/21 06:53:35;;;;;;;66.90;29.25;;;;;;;-4.63;74.23;101858.81;4083112;29;20050;-71
2024/01/21 06:55:38;;;;;;;63.45;27.70;;;;;;;-4.60;74.60;101856.56;4083105;29;20391;-70
2024/01/21 06:57:41;;;;;;;67.82;29.80;;;;;;;-4.45;75.39;101858.81;4083169;29;20123;-70
2024/01/21 06:59:43;;;;;;;72.43;29.83;;;;;;;-4.38;74.25;101854.47;4084304;29;20042;-71
2024/01/21 07:01:47;;;;;;;81.38;31.33;;;;;;;-4.31;74.68;101852.53;4083903;29;20148;-70
2024/01/21 07:03:50;;;;;;;71.32;29.30;;;;;;;-4.39;73.78;101851.78;4084258;29;20114;-70
2024/01/21 07:05:53;;;;;;;63.40;28.92;;;;;;;-4.30;75.77;101850.13;4084112;29;20549;-71
2024/01/21 07:07:57;;;;;;;68.75;32.30;;;;;;;-4.36;75.38;101849.53;4084180;29;20051;-71
2024/01/21 07:09:59;;;;;;;71.80;29.77;;;;;;;-4.38;76.30;101846.84;4084077;29;20040;-70
2024/01/21 07:12:04;;;;;;;75.78;30.55;;;;;;;-4.28;75.66;101850.28;4083779;29;20075;-70
2024/01/21 07:14:07;;;;;;;63.55;26.98;;;;;;;-4.24;75.27;101840.56;4095068;29;20042;-71
2024/01/21 07:16:10;;;;;;;73.80;30.70;;;;;;;-4.19;75.60;101853.72;4098729;29;20070;-70
2024/01/21 07:18:14;;;;;;;72.53;29.88;;;;;;;-4.14;75.72;101847.41;4099974;28;20134;-70
2024/01/21 07:20:17;;;;;;;70.00;31.00;;;;;;;-4.08;76.14;101855.59;4098643;29;20481;-71
2024/01/21 07:22:20;;;;;;;69.97;30.15;;;;;;;-4.10;74.94;101856.25;4099583;28;20049;-70
2024/01/21 07:24:23;;;;;;;82.35;31.60;;;;;;;-4.10;75.72;101861.31;4099884;28;20469;-70
2024/01/21 07:26:27;;;;;;;64.40;28.65;;;;;;;-3.97;74.87;101863.34;4099786;29;20050;-70
2024/01/21 07:28:30;;;;;;;71.03;30.05;;;;;;;-4.06;75.08;101856.66;4099651;29;20043;-70
2024/01/21 07:30:33;;;;;;;67.00;28.23;;;;;;;-4.04;75.21;101856.81;4098584;29;20459;-70
2024/01/21 07:32:36;;;;;;;69.00;30.50;;;;;;;-3.88;76.24;101859.16;4097965;29;20054;-71
2024/01/21 07:34:40;;;;;;;66.28;28.98;;;;;;;-3.83;75.16;101857.06;4099302;28;20050;-71
2024/01/21 07:36:43;;;;;;;70.07;29.80;;;;;;;-3.90;75.80;101865.72;4099186;28;20131;-71
2024/01/21 07:38:46;;;;;;;67.85;30.55;;;;;;;-3.86;76.50;101870.34;4098815;28;20389;-70
2024/01/21 07:40:49;;;;;;;64.65;28.80;;;;;;;-3.95;75.94;101872.91;4099076;29;20454;-71
2024/01/21 07:42:52;;;;;;;58.80;26.70;;;;;;;-3.85;76.34;101869.63;4098091;29;20123;-71
2024/01/21 07:44:56;;;;;;;59.75;25.40;;;;;;;-3.77;75.70;101867.78;4099546;28;20039;-71
2024/01/21 07:46:58;;;;;;;58.17;27.35;;;;;;;-3.79;76.11;101877.81;4099562;28;20405;-71
2024/01/21 07:49:01;;;;;;;61.05;26.95;;;;;;;-3.72;76.63;101875.09;4099423;29;20039;-71
2024/01/21 07:51:06;;;;;;;58.72;26.25;;;;;;;-3.67;75.94;101880.63;4099198;29;20070;-71
2024/01/21 07:53:09;;;;;;;68.32;28.33;;;;;;;-3.57;76.65;101890.88;4099604;28;20058;-71
2024/01/21 07:55:12;;;;;;;52.10;25.48;;;;;;;-3.56;76.47;101895.22;4099561;29;20066;-71
2024/01/21 07:57:15;;;;;;;54.80;25.15;;;;;;;-3.59;76.14;101896.56;4099435;29;20075;-70
2024/01/21 07:59:18;;;;;;;49.38;25.23;;;;;;;-3.57;76.60;101898.50;4099149;29;20038;-70
2024/01/21 08:01:24;;;;;;;55.67;25.83;;;;;;;-3.44;75.99;101889.53;4098936;29;20470;-71
2024/01/21 08:03:27;;;;;;;52.72;27.10;;;;;;;-3.40;75.80;101871.22;4098313;29;20051;-70
2024/01/21 08:05:31;;;;;;;48.28;23.30;;;;;;;-3.40;75.81;101871.22;4098209;29;20167;-71
2024/01/21 08:07:35;;;;;;;44.08;23.27;;;;;;;-3.37;75.80;101866.47;4099409;29;20047;-71
2024/01/21 08:09:38;;;;;;;39.33;19.70;;;;;;;-3.38;76.41;101873.16;4099305;29;20039;-70
2024/01/21 08:11:41;;;;;;;48.90;23.77;;;;;;;-3.40;76.29;101872.13;4098758;29;20055;-71
2024/01/21 08:13:45;;;;;;;47.60;23.75;;;;;;;-3.37;76.38;101861.38;4099433;28;20082;-70
2024/01/21 08:15:48;;;;;;;48.22;23.20;;;;;;;-3.34;76.05;101861.66;4099288;28;20486;-71
2024/01/21 08:17:51;;;;;;;40.75;22.90;;;;;;;-3.30;75.62;101858.66;4099270;29;20046;-71
2024/01/21 08:19:53;;;;;;;44.67;21.80;;;;;;;-3.27;75.22;101855.47;4099310;28;20043;-71
2024/01/21 08:21:57;;;;;;;45.03;22.67;;;;;;;-3.24;75.34;101863.38;4098979;28;20043;-71
2024/01/21 08:24:02;;;;;;;40.33;23.30;;;;;;;-3.31;75.58;101859.38;4099206;28;20074;-71
2024/01/21 08:26:05;;;;;;;41.50;23.08;;;;;;;-3.31;75.84;101850.84;4099251;28;20050;-71
2024/01/21 08:28:08;;;;;;;43.90;23.65;;;;;;;-3.34;75.97;101854.03;4099275;29;20051;-71
2024/01/21 08:30:11;;;;;;;42.13;23.23;;;;;;;-3.35;75.95;101854.75;4099093;28;20098;-70
2024/01/21 08:32:14;;;;;;;43.03;24.65;;;;;;;-3.31;75.13;101851.75;4097735;29;20043;-70
2024/01/21 08:34:17;;;;;;;36.65;21.60;;;;;;;-3.34;75.07;101856.56;4098020;29;20420;-70
2024/01/21 08:36:20;;;;;;;38.80;22.00;;;;;;;-3.36;74.86;101866.59;4099195;28;20039;-70
2024/01/21 08:38:23;;;;;;;41.60;23.23;;;;;;;-3.42;75.39;101877.84;4099144;28;20046;-71
2024/01/21 08:40:28;;;;;;;40.97;23.20;;;;;;;-3.43;75.14;101891.28;4097885;29;20589;-71
2024/01/21 08:42:31;;;;;;;39.67;22.77;;;;;;;-3.44;75.29;101895.47;4098699;28;20494;-71
2024/01/21 08:44:34;;;;;;;42.88;25.42;;;;;;;-3.36;75.17;101903.81;4099133;28;20047;-70
2024/01/21 08:46:37;;;;;;;45.42;23.65;;;;;;;-3.52;74.66;101906.56;4097691;29;20051;-70
2024/01/21 08:48:42;;;;;;;39.45;21.42;;;;;;;-3.52;74.81;101904.03;4097861;29;20074;-70
2024/01/21 08:50:46;;;;;;;44.50;24.30;;;;;;;-3.39;74.97;101904.44;4098830;29;20039;-70
2024/01/21 08:52:49;;;;;;;41.72;23.15;;;;;;;-3.27;75.06;101903.78;4088490;28;20050;-70
2024/01/21 08:54:52;;;;;;;43.67;24.33;;;;;;;-3.11;75.40;101901.94;4115145;28;20133;-70
2024/01/21 08:56:56;;;;;;;38.15;21.83;;;;;;;-3.02;75.16;101906.97;4113674;28;20106;-71
2024/01/21 08:59:00;;;;;;;46.72;25.23;;;;;;;-2.90;74.65;101908.09;4115145;28;20047;-71
2024/01/21 09:01:03;;;;;;;37.85;22.13;;;;;;;-2.89;74.80;101904.78;4114784;28;20093;-71
2024/01/21 09:03:07;;;;;;;45.78;24.85;;;;;;;-2.88;74.84;101910.75;4115063;28;20073;-71
2024/01/21 09:05:11;;;;;;;41.92;23.73;;;;;;;-2.66;74.47;101898.34;4114854;28;20042;-70
2024/01/21 09:07:14;;;;;;;37.65;23.85;;;;;;;-2.73;74.38;101884.19;4114862;28;20043;-71
2024/01/21 09:09:17;;;;;;;45.70;24.70;;;;;;;-2.67;74.41;101882.19;4114765;28;20053;-71
2024/01/21 09:11:21;;;;;;;41.88;23.63;;;;;;;-2.72;74.64;101874.88;4114194;28;20035;-70
2024/01/21 09:13:25;;;;;;;42.03;25.13;;;;;;;-2.72;74.90;101864.69;4111348;28;20049;-71
2024/01/21 09:15:28;;;;;;;46.35;25.90;;;;;;;-2.78;74.61;101856.53;4100523;28;20160;-71
2024/01/21 09:17:31;;;;;;;42.75;23.45;;;;;;;-2.78;75.17;101866.69;4084549;29;20044;-71
2024/01/21 09:19:34;;;;;;;45.40;24.38;;;;;;;-2.75;75.33;101882.25;4100409;28;20047;-71
2024/01/21 09:21:37;;;;;;;43.67;25.25;;;;;;;-2.61;74.78;101871.66;4101305;28;20106;-70